Time;durP1;ratioP1;P1;durP2;ratioP2;P2;SDS_P1;SDS_P2;PMS_P1;PMS_P2;Temp;Humidity;BMP_temperature;BMP_pressure;BME280_temperature;BME280_humidity;BME280_pressure;Samples;Min_cycle;Max_cycle;Signal;HPM_P1;HPM_P2
2023/03/19 00:00:45;;;;;;;6.78;2.45;;;12.10;99.90;;;;;;5039754;28;20042;-80
2023/03/19 00:03:11;;;;;;;3.25;1.92;;;12.10;99.90;;;;;;5040055;28;20132;-80
2023/03/19 00:05:38;;;;;;;4.78;1.77;;;12.10;99.90;;;;;;5047797;28;20037;-80
2023/03/19 00:08:05;;;;;;;6.78;2.50;;;12.10;99.90;;;;;;5039334;28;20074;-80
2023/03/19 00:10:36;;;;;;;3.83;1.80;;;12.20;99.90;;;;;;5057966;28;20085;-81
2023/03/19 00:13:02;;;;;;;;;;;12.20;99.90;;;;;;5047616;28;20042;-82
2023/03/19 00:15:29;;;;;;;4.75;2.30;;;12.10;99.90;;;;;;5050037;28;20008;-80
2023/03/19 00:17:56;;;;;;;4.80;2.50;;;12.20;99.90;;;;;;5054724;28;20038;-80
2023/03/19 00:20:23;;;;;;;6.90;2.33;;;12.20;99.90;;;;;;5049704;28;20045;-80
2023/03/19 00:22:50;;;;;;;4.60;2.25;;;12.20;99.90;;;;;;5052995;28;20053;-82
2023/03/19 00:25:16;;;;;;;5.47;2.78;;;12.20;99.90;;;;;;5042343;28;20053;-80
2023/03/19 00:27:43;;;;;;;4.45;2.50;;;12.30;99.90;;;;;;5046076;28;20057;-81
2023/03/19 00:30:10;;;;;;;3.22;2.35;;;12.30;99.90;;;;;;5050149;28;20482;-78
2023/03/19 00:32:38;;;;;;;6.10;2.45;;;12.30;99.90;;;;;;5044729;28;20052;-81
2023/03/19 00:35:05;;;;;;;7.22;2.50;;;12.30;99.90;;;;;;5037063;28;20069;-79
2023/03/19 00:37:33;;;;;;;5.00;2.58;;;12.30;99.90;;;;;;5046763;28;20051;-80
2023/03/19 00:40:00;;;;;;;10.50;3.08;;;12.30;99.90;;;;;;5043083;28;20041;-80
2023/03/19 00:42:27;;;;;;;5.53;2.95;;;12.30;99.90;;;;;;5044584;28;20077;-79
2023/03/19 00:44:54;;;;;;;3.75;2.10;;;12.40;99.90;;;;;;5042061;28;20053;-81
2023/03/19 00:47:21;;;;;;;4.05;2.33;;;12.40;99.90;;;;;;5052342;28;20105;-80
2023/03/19 00:49:48;;;;;;;5.78;2.10;;;12.40;99.90;;;;;;5053774;28;20049;-78
2023/03/19 00:52:15;;;;;;;3.35;1.73;;;12.40;99.90;;;;;;5041250;28;20527;-79
2023/03/19 00:54:41;;;;;;;4.80;2.17;;;12.40;99.90;;;;;;5050045;28;20047;-79
2023/03/19 00:57:08;;;;;;;5.80;2.33;;;12.40;99.90;;;;;;5047348;28;20042;-78
2023/03/19 00:59:35;;;;;;;4.13;1.90;;;12.40;99.90;;;;;;5049336;28;21054;-80
2023/03/19 01:02:03;;;;;;;4.47;2.20;;;12.40;99.90;;;;;;5041241;28;20085;-79
2023/03/19 01:04:30;;;;;;;4.20;1.70;;;12.40;99.90;;;;;;5048736;28;20061;-79
2023/03/19 01:06:57;;;;;;;4.15;1.70;;;12.40;99.90;;;;;;5039940;28;20141;-79
2023/03/19 01:09:24;;;;;;;6.00;1.90;;;12.40;99.90;;;;;;5043586;28;20053;-79
2023/03/19 01:11:51;;;;;;;3.20;1.95;;;12.40;99.90;;;;;;5045392;28;20044;-81
2023/03/19 01:14:18;;;;;;;4.05;1.95;;;12.40;99.90;;;;;;5044911;28;20481;-81
2023/03/19 01:16:44;;;;;;;2.20;1.48;;;12.40;99.90;;;;;;5039825;28;20069;-79
2023/03/19 01:19:11;;;;;;;2.95;1.77;;;12.40;99.90;;;;;;5037137;28;20052;-79
2023/03/19 01:21:38;;;;;;;3.85;2.00;;;12.40;99.90;;;;;;5038457;28;20464;-80
2023/03/19 01:24:05;;;;;;;4.75;1.75;;;12.40;99.90;;;;;;5042432;28;20133;-80
2023/03/19 01:26:32;;;;;;;4.50;2.05;;;12.40;99.90;;;;;;5040647;28;20045;-78
2023/03/19 01:28:58;;;;;;;2.78;1.52;;;12.40;99.90;;;;;;5044110;28;20110;-80
2023/03/19 01:31:25;;;;;;;2.38;1.52;;;12.30;99.90;;;;;;5034876;28;20064;-78
2023/03/19 01:33:52;;;;;;;3.47;1.63;;;12.30;99.90;;;;;;5038855;28;20105;-79
2023/03/19 01:36:19;;;;;;;4.75;1.95;;;12.30;99.90;;;;;;5042401;28;20045;-79
2023/03/19 01:38:46;;;;;;;5.78;1.90;;;12.30;99.90;;;;;;5044835;28;20059;-79
2023/03/19 01:41:13;;;;;;;5.57;1.83;;;12.30;99.90;;;;;;5040908;28;20049;-79
2023/03/19 01:43:40;;;;;;;3.00;1.45;;;12.30;99.90;;;;;;5050687;28;20124;-80
2023/03/19 01:46:29;;;;;;;3.17;1.58;;;12.30;99.90;;;;;;5045903;28;20070;-80
2023/03/19 01:48:59;;;;;;;3.08;1.50;;;12.30;99.90;;;;;;5042004;28;20045;-82
2023/03/19 01:51:36;;;;;;;4.60;1.77;;;12.30;99.90;;;;;;5039519;28;20054;-81
2023/03/19 01:54:07;;;;;;;1.85;1.27;;;12.40;99.90;;;;;;5039835;28;20046;-80
2023/03/19 01:56:37;;;;;;;3.03;1.30;;;12.40;99.90;;;;;;5047414;28;20049;-80
2023/03/19 01:59:20;;;;;;;3.33;1.60;;;12.40;99.90;;;;;;5032522;28;20034;-80
2023/03/19 02:01:53;;;;;;;5.07;1.70;;;12.40;99.90;;;;;;5041019;28;20079;-81
2023/03/19 02:04:21;;;;;;;4.90;1.45;;;12.40;99.90;;;;;;5044272;28;20049;-79
2023/03/19 02:06:48;;;;;;;2.20;1.30;;;12.40;99.90;;;;;;5037675;28;20072;-82
2023/03/19 02:09:17;;;;;;;2.08;0.88;;;12.40;99.90;;;;;;5038532;28;20750;-80
2023/03/19 02:11:44;;;;;;;2.95;1.50;;;12.40;99.90;;;;;;5047186;28;20089;-81
2023/03/19 02:14:12;;;;;;;3.05;1.38;;;12.40;99.90;;;;;;5035253;28;20076;-81
2023/03/19 02:16:38;;;;;;;2.08;1.17;;;12.40;99.90;;;;;;5049305;28;20136;-80
2023/03/19 02:19:08;;;;;;;3.50;1.40;;;12.40;99.90;;;;;;5042153;28;20113;-80
2023/03/19 02:21:35;;;;;;;3.53;1.35;;;12.40;99.90;;;;;;5052275;28;20533;-79
2023/03/19 02:24:16;;;;;;;5.70;1.60;;;12.40;99.90;;;;;;5047074;28;20049;-81
2023/03/19 02:26:44;;;;;;;3.60;1.20;;;12.40;99.90;;;;;;5044379;28;20041;-79
2023/03/19 02:29:11;;;;;;;5.82;1.50;;;12.30;99.90;;;;;;5039037;28;20049;-80
2023/03/19 02:31:38;;;;;;;3.28;1.20;;;12.20;99.90;;;;;;5042915;28;20073;-80
2023/03/19 02:34:20;;;;;;;4.15;1.50;;;12.20;99.90;;;;;;5045012;28;20083;-80
2023/03/19 02:36:57;;;;;;;1.88;1.00;;;12.10;99.90;;;;;;5034011;28;20044;-79
2023/03/19 02:40:03;;;;;;;2.08;1.35;;;12.10;99.90;;;;;;5039360;28;20738;-80
2023/03/19 02:42:30;;;;;;;4.50;1.40;;;12.10;99.90;;;;;;5037876;28;20054;-80
2023/03/19 02:44:57;;;;;;;3.08;1.05;;;12.10;99.90;;;;;;5041134;28;20045;-81
2023/03/19 02:47:25;;;;;;;3.03;1.02;;;12.10;99.90;;;;;;5036880;28;20106;-79
2023/03/19 02:49:52;;;;;;;2.28;1.30;;;12.00;99.90;;;;;;5038879;28;20048;-80
2023/03/19 02:52:20;;;;;;;2.83;1.08;;;12.00;99.90;;;;;;5029986;28;20109;-80
2023/03/19 02:54:47;;;;;;;3.05;1.08;;;12.00;99.90;;;;;;5038141;28;20413;-80
2023/03/19 02:57:14;;;;;;;3.95;1.30;;;12.00;99.90;;;;;;5044451;28;20046;-80
2023/03/19 02:59:41;;;;;;;2.35;1.25;;;12.00;99.90;;;;;;5047710;28;20084;-82
2023/03/19 03:02:08;;;;;;;2.28;1.30;;;12.00;99.90;;;;;;5048583;28;20124;-80
2023/03/19 03:04:36;;;;;;;1.85;1.08;;;11.90;99.90;;;;;;5049285;28;20128;-79
2023/03/19 03:07:04;;;;;;;3.13;1.40;;;11.90;99.90;;;;;;5044720;28;20056;-78
2023/03/19 03:09:31;;;;;;;4.43;1.38;;;11.90;99.90;;;;;;5043987;28;20108;-80
2023/03/19 03:11:58;;;;;;;3.58;1.50;;;11.90;99.90;;;;;;5047934;28;20123;-81
2023/03/19 03:14:24;;;;;;;2.33;1.27;;;11.90;99.90;;;;;;5039536;28;20048;-79
2023/03/19 03:16:51;;;;;;;3.10;1.52;;;11.90;99.90;;;;;;5042676;28;20041;-79
2023/03/19 03:19:18;;;;;;;3.45;1.17;;;11.90;99.90;;;;;;5036641;28;20076;-80
2023/03/19 03:21:45;;;;;;;3.28;1.10;;;11.90;99.90;;;;;;5051077;28;20044;-79
2023/03/19 03:24:12;;;;;;;2.33;1.40;;;11.90;99.90;;;;;;5040113;28;20046;-81
2023/03/19 03:26:39;;;;;;;2.53;1.40;;;11.80;99.90;;;;;;5046555;28;20497;-79
2023/03/19 03:29:06;;;;;;;3.08;1.35;;;11.80;99.90;;;;;;5039721;28;20046;-80
2023/03/19 03:31:33;;;;;;;4.85;1.60;;;11.80;99.90;;;;;;5038283;28;20077;-79
2023/03/19 03:34:00;;;;;;;3.60;1.17;;;11.80;99.90;;;;;;5035295;28;20086;-82
2023/03/19 03:36:27;;;;;;;3.80;1.15;;;11.70;99.90;;;;;;5045711;28;20050;-80
2023/03/19 03:38:54;;;;;;;3.40;1.10;;;11.70;99.90;;;;;;5035558;28;20038;-79
2023/03/19 03:41:21;;;;;;;5.70;1.33;;;11.70;99.90;;;;;;5047618;28;20045;-81
2023/03/19 03:43:48;;;;;;;2.47;1.23;;;11.70;99.90;;;;;;5048061;28;20041;-78
2023/03/19 03:46:14;;;;;;;2.65;1.33;;;11.70;99.90;;;;;;5049066;28;20044;-80
2023/03/19 03:48:41;;;;;;;2.25;0.93;;;11.70;99.90;;;;;;5046365;28;20060;-82
2023/03/19 03:51:08;;;;;;;2.90;1.38;;;11.70;99.90;;;;;;5045594;28;20109;-81
2023/03/19 03:53:35;;;;;;;2.50;1.10;;;11.70;99.90;;;;;;5050092;28;20073;-80
2023/03/19 03:56:01;;;;;;;2.97;1.30;;;11.60;99.90;;;;;;5045038;28;20129;-81
2023/03/19 03:58:28;;;;;;;5.20;1.55;;;11.60;99.90;;;;;;5049337;28;20048;-81
2023/03/19 04:00:55;;;;;;;1.42;1.10;;;11.60;99.90;;;;;;5041267;28;20071;-80
2023/03/19 04:03:23;;;;;;;2.10;1.13;;;11.60;99.90;;;;;;5039809;28;20497;-81
2023/03/19 04:05:50;;;;;;;3.70;1.23;;;11.50;99.90;;;;;;5039981;28;20534;-80
2023/03/19 04:08:17;;;;;;;3.67;1.15;;;11.50;99.90;;;;;;5050011;28;20056;-81
2023/03/19 04:10:44;;;;;;;1.67;1.00;;;11.40;99.90;;;;;;5040450;28;20395;-80
2023/03/19 04:13:11;;;;;;;2.40;1.30;;;11.30;99.90;;;;;;5035007;28;20055;-80
2023/03/19 04:15:40;;;;;;;3.88;1.42;;;11.30;99.90;;;;;;5041667;28;20060;-81
2023/03/19 04:18:07;;;;;;;3.92;1.42;;;11.30;99.90;;;;;;5050358;28;20052;-80
2023/03/19 04:20:34;;;;;;;4.63;1.52;;;11.30;99.90;;;;;;5038991;28;20045;-81
2023/03/19 04:23:02;;;;;;;3.03;0.93;;;11.30;99.90;;;;;;5045857;28;20100;-79
2023/03/19 04:25:28;;;;;;;2.63;1.00;;;11.30;99.90;;;;;;5045042;28;20116;-81
2023/03/19 04:27:56;;;;;;;1.33;1.15;;;11.30;99.90;;;;;;5047263;28;20045;-80
2023/03/19 04:30:23;;;;;;;1.83;0.98;;;11.30;99.90;;;;;;5042902;28;20053;-81
2023/03/19 04:32:50;;;;;;;1.55;0.85;;;11.30;99.90;;;;;;5051028;28;20053;-79
2023/03/19 04:35:17;;;;;;;2.20;1.17;;;11.30;99.90;;;;;;5041205;28;20061;-81
2023/03/19 04:37:47;;;;;;;2.10;1.02;;;11.20;99.90;;;;;;5049445;28;20060;-80
2023/03/19 04:40:15;;;;;;;1.73;0.90;;;11.20;99.90;;;;;;5041862;28;20046;-80
2023/03/19 04:42:43;;;;;;;4.05;1.20;;;11.20;99.90;;;;;;5041863;28;20049;-78
2023/03/19 04:45:10;;;;;;;1.75;1.02;;;11.10;99.90;;;;;;5043068;28;20049;-78
2023/03/19 04:47:37;;;;;;;2.88;1.38;;;11.10;99.90;;;;;;5042755;28;20113;-81
2023/03/19 04:50:06;;;;;;;2.85;1.10;;;11.10;99.90;;;;;;5033991;28;20129;-80
2023/03/19 04:52:33;;;;;;;1.20;0.98;;;11.10;99.90;;;;;;5040745;28;20052;-81
2023/03/19 04:55:00;;;;;;;3.35;1.13;;;11.10;99.90;;;;;;5034153;28;20096;-80
2023/03/19 04:57:27;;;;;;;1.85;0.95;;;11.10;99.90;;;;;;5045908;28;20046;-81
2023/03/19 04:59:53;;;;;;;5.05;1.17;;;11.00;99.90;;;;;;5040567;28;20074;-80
2023/03/19 05:02:20;;;;;;;3.40;1.20;;;11.00;99.90;;;;;;5038402;28;20056;-79
2023/03/19 05:04:47;;;;;;;4.00;1.33;;;11.00;99.90;;;;;;5045352;28;20058;-80
2023/03/19 05:07:14;;;;;;;2.40;1.08;;;11.00;99.90;;;;;;5043956;28;20042;-79
2023/03/19 05:09:42;;;;;;;2.97;1.23;;;10.90;99.90;;;;;;5049444;28;20081;-82
2023/03/19 05:12:10;;;;;;;2.95;0.85;;;10.90;99.90;;;;;;5051084;28;20049;-81
2023/03/19 05:14:37;;;;;;;3.03;1.20;;;10.80;99.90;;;;;;5047386;28;20101;-81
2023/03/19 05:17:04;;;;;;;3.67;1.17;;;10.80;99.90;;;;;;5049717;28;20116;-78
2023/03/19 05:19:31;;;;;;;3.90;1.10;;;10.70;99.90;;;;;;5046418;28;20052;-80
2023/03/19 05:21:58;;;;;;;2.00;1.13;;;10.60;99.90;;;;;;5039565;28;20120;-79
2023/03/19 05:24:24;;;;;;;1.90;1.10;;;10.60;99.90;;;;;;5036824;28;20057;-81
2023/03/19 05:26:51;;;;;;;2.33;0.90;;;10.60;99.90;;;;;;5038276;28;20131;-81
2023/03/19 05:29:18;;;;;;;3.20;0.90;;;10.50;99.90;;;;;;5036845;28;20042;-81
2023/03/19 05:31:45;;;;;;;4.13;1.13;;;10.40;99.90;;;;;;5045336;28;20053;-80
2023/03/19 05:34:11;;;;;;;1.98;0.90;;;10.40;99.90;;;;;;5040581;28;20402;-81
2023/03/19 05:36:38;;;;;;;1.73;1.10;;;10.30;99.90;;;;;;5037014;28;20070;-81
2023/03/19 05:39:05;;;;;;;2.03;1.20;;;10.30;99.90;;;;;;5043070;28;20101;-81
2023/03/19 05:41:32;;;;;;;1.27;1.00;;;10.20;99.90;;;;;;5044363;28;20042;-80
2023/03/19 05:43:58;;;;;;;2.50;1.02;;;10.20;99.90;;;;;;5033584;28;20109;-80
2023/03/19 05:46:26;;;;;;;1.50;1.20;;;10.10;99.90;;;;;;5036705;28;20088;-80
2023/03/19 05:48:53;;;;;;;3.85;1.23;;;10.00;99.90;;;;;;5049077;28;20041;-81
2023/03/19 05:51:19;;;;;;;3.75;1.42;;;10.00;99.90;;;;;;5041442;28;20399;-81
2023/03/19 05:53:46;;;;;;;4.63;1.67;;;9.90;99.90;;;;;;5048563;28;20042;-79
2023/03/19 05:56:13;;;;;;;2.03;1.17;;;9.90;99.90;;;;;;5041280;28;20053;-79
2023/03/19 05:58:39;;;;;;;3.10;1.42;;;9.90;99.90;;;;;;5042207;28;20045;-80
2023/03/19 06:01:06;;;;;;;2.22;1.50;;;9.90;99.90;;;;;;5038189;28;20120;-81
2023/03/19 06:03:33;;;;;;;4.07;1.30;;;9.90;99.90;;;;;;5047921;28;20054;-79
2023/03/19 06:06:00;;;;;;;2.78;1.42;;;9.80;99.90;;;;;;5037290;28;20076;-80
2023/03/19 06:08:26;;;;;;;2.42;1.48;;;9.80;99.90;;;;;;5044549;28;20061;-81
2023/03/19 06:10:53;;;;;;;2.15;1.25;;;9.80;99.90;;;;;;5041297;28;20108;-80
2023/03/19 06:13:20;;;;;;;3.00;1.52;;;9.80;99.90;;;;;;5044967;28;20064;-81
2023/03/19 06:15:48;;;;;;;2.47;1.40;;;9.80;99.90;;;;;;5046778;28;20080;-81
2023/03/19 06:18:15;;;;;;;3.40;1.50;;;9.80;99.90;;;;;;5035476;28;20065;-79
2023/03/19 06:20:42;;;;;;;2.92;2.00;;;9.80;99.90;;;;;;5034066;28;20077;-79
2023/03/19 06:23:09;;;;;;;3.15;1.23;;;9.80;99.90;;;;;;5044742;28;20414;-81
2023/03/19 06:25:36;;;;;;;5.55;1.38;;;9.80;99.90;;;;;;5036572;28;20049;-80
2023/03/19 06:28:04;;;;;;;2.67;1.30;;;9.90;99.90;;;;;;5045254;28;20052;-79
2023/03/19 06:30:31;;;;;;;3.08;1.88;;;9.90;99.90;;;;;;5048903;28;20080;-79
2023/03/19 06:32:58;;;;;;;2.78;1.60;;;10.00;99.90;;;;;;5043591;28;20045;-80
2023/03/19 06:35:25;;;;;;;2.63;1.67;;;10.00;99.90;;;;;;5043271;28;20079;-80
2023/03/19 06:37:52;;;;;;;2.28;1.35;;;10.10;99.90;;;;;;5047711;28;20045;-79
2023/03/19 06:40:19;;;;;;;3.08;1.77;;;10.10;99.90;;;;;;5038100;28;20129;-79
2023/03/19 06:42:47;;;;;;;3.53;1.75;;;10.20;99.90;;;;;;5042782;28;20052;-81
2023/03/19 06:45:20;;;;;;;2.78;2.08;;;10.20;99.90;;;;;;5040830;28;20061;-80
2023/03/19 06:47:47;;;;;;;5.07;2.45;;;10.30;99.90;;;;;;5039078;28;20077;-79
2023/03/19 06:50:17;;;;;;;3.70;2.05;;;10.40;99.90;;;;;;5038212;28;20085;-80
2023/03/19 06:52:44;;;;;;;4.05;1.85;;;10.40;99.90;;;;;;5042126;28;20050;-81
2023/03/19 06:55:11;;;;;;;3.85;1.58;;;10.50;99.90;;;;;;5043175;28;20141;-81
2023/03/19 06:57:38;;;;;;;5.38;3.90;;;10.60;99.90;;;;;;5030611;28;20084;-80
2023/03/19 07:00:09;;;;;;;5.55;2.97;;;10.60;99.90;;;;;;5039368;28;20052;-81
2023/03/19 07:02:36;;;;;;;3.40;2.00;;;10.70;99.90;;;;;;5043365;28;20068;-79
2023/03/19 07:05:03;;;;;;;4.50;1.52;;;10.70;99.90;;;;;;5043110;28;20046;-80
2023/03/19 07:07:30;;;;;;;5.25;1.73;;;10.80;99.90;;;;;;5030626;28;20054;-78
2023/03/19 07:09:57;;;;;;;7.65;2.00;;;10.90;99.90;;;;;;5044285;28;20051;-80
2023/03/19 07:12:26;;;;;;;3.80;1.65;;;10.90;99.90;;;;;;5039578;28;20057;-78
2023/03/19 07:14:55;;;;;;;2.15;1.52;;;11.00;99.90;;;;;;5047750;28;20054;-80
2023/03/19 07:17:23;;;;;;;4.50;1.50;;;11.10;99.90;;;;;;5039279;28;20052;-80
2023/03/19 07:19:50;;;;;;;6.93;1.85;;;11.20;99.90;;;;;;5039831;28;20049;-78
2023/03/19 07:22:17;;;;;;;2.90;1.70;;;11.20;99.90;;;;;;5040790;28;20425;-78
2023/03/19 07:24:44;;;;;;;3.72;2.08;;;11.30;99.90;;;;;;5037631;28;20060;-80
2023/03/19 07:27:10;;;;;;;5.97;1.90;;;11.40;99.90;;;;;;5037122;28;20080;-79
2023/03/19 07:29:37;;;;;;;3.53;2.17;;;11.40;99.90;;;;;;5034835;28;20050;-81
2023/03/19 07:32:04;;;;;;;7.93;2.10;;;11.50;99.90;;;;;;5035707;28;20048;-80
2023/03/19 07:34:31;;;;;;;3.33;1.60;;;11.50;99.90;;;;;;5032428;28;20548;-79
2023/03/19 07:36:57;;;;;;;4.50;1.95;;;11.60;99.90;;;;;;5046652;28;20420;-79
2023/03/19 07:39:24;;;;;;;4.78;1.83;;;11.60;99.90;;;;;;5035046;28;20115;-81
2023/03/19 07:41:51;;;;;;;7.95;2.63;;;11.70;99.90;;;;;;5036868;28;20052;-79
2023/03/19 07:44:18;;;;;;;6.15;2.17;;;11.70;99.90;;;;;;5030667;28;20046;-80
2023/03/19 07:46:44;;;;;;;4.07;1.45;;;11.80;99.90;;;;;;5035910;28;20060;-80
2023/03/19 07:49:11;;;;;;;5.30;2.17;;;11.90;99.90;;;;;;5034130;28;20138;-79
2023/03/19 07:51:38;;;;;;;6.90;2.30;;;12.00;99.90;;;;;;5036131;28;20053;-81
2023/03/19 07:54:05;;;;;;;3.97;1.80;;;12.00;99.90;;;;;;5045373;28;20048;-79
2023/03/19 07:56:32;;;;;;;4.57;1.83;;;12.10;99.90;;;;;;5048716;28;20086;-80
2023/03/19 07:58:59;;;;;;;2.45;1.45;;;12.20;99.90;;;;;;5047757;28;20148;-80
2023/03/19 08:01:26;;;;;;;4.90;1.77;;;12.30;99.90;;;;;;5049100;28;20073;-80
2023/03/19 08:03:52;;;;;;;5.03;1.75;;;12.50;99.90;;;;;;5047071;28;20141;-82
2023/03/19 08:06:19;;;;;;;3.67;1.63;;;12.60;99.90;;;;;;5043678;28;20052;-80
2023/03/19 08:08:46;;;;;;;3.90;1.75;;;12.70;99.90;;;;;;5044817;28;20054;-79
2023/03/19 08:11:13;;;;;;;4.63;1.40;;;12.80;99.90;;;;;;5051425;28;20493;-80
2023/03/19 08:13:39;;;;;;;4.38;1.63;;;13.00;99.90;;;;;;5050518;28;20057;-80
2023/03/19 08:16:07;;;;;;;7.95;1.92;;;13.10;99.90;;;;;;5045904;28;20037;-80
2023/03/19 08:18:35;;;;;;;3.80;1.90;;;13.20;99.90;;;;;;5035967;28;20105;-80
2023/03/19 08:21:01;;;;;;;2.80;1.33;;;13.30;99.90;;;;;;5045476;28;20105;-80
2023/03/19 08:23:28;;;;;;;3.35;2.15;;;13.40;99.90;;;;;;5038816;28;20076;-79
2023/03/19 08:25:55;;;;;;;4.13;1.70;;;13.50;99.90;;;;;;5047789;28;20265;-80
2023/03/19 08:28:22;;;;;;;6.88;2.00;;;13.60;99.90;;;;;;5034797;28;20053;-79
2023/03/19 08:30:49;;;;;;;5.68;2.38;;;13.70;99.90;;;;;;5037025;28;20060;-80
2023/03/19 08:33:16;;;;;;;5.57;1.88;;;13.80;99.90;;;;;;5031903;28;20064;-80
2023/03/19 08:35:43;;;;;;;4.28;1.65;;;13.90;99.90;;;;;;5046890;28;20053;-80
2023/03/19 08:38:10;;;;;;;3.53;1.60;;;14.00;99.90;;;;;;5047406;28;20041;-80
2023/03/19 08:40:36;;;;;;;5.68;1.92;;;14.00;99.90;;;;;;5041769;28;20049;-82
2023/03/19 08:43:03;;;;;;;2.72;1.98;;;14.10;99.90;;;;;;5039624;28;20049;-78
2023/03/19 08:45:30;;;;;;;3.72;1.67;;;14.10;99.90;;;;;;5043356;28;20056;-80
2023/03/19 08:47:57;;;;;;;6.28;1.98;;;14.10;99.90;;;;;;5042702;28;20049;-80
2023/03/19 08:50:23;;;;;;;5.32;1.85;;;14.10;99.90;;;;;;5035944;28;20046;-78
2023/03/19 08:52:50;;;;;;;4.13;1.77;;;14.10;99.90;;;;;;5040251;28;20109;-83
2023/03/19 08:55:17;;;;;;;7.60;1.70;;;14.10;99.90;;;;;;5039692;28;20046;-80
2023/03/19 08:57:44;;;;;;;4.13;1.80;;;14.10;99.90;;;;;;5028041;28;20143;-81
2023/03/19 09:00:11;;;;;;;5.18;1.90;;;14.20;99.90;;;;;;5027953;28;20073;-80
2023/03/19 09:02:39;;;;;;;4.45;1.75;;;14.20;99.90;;;;;;5038215;28;20048;-80
2023/03/19 09:05:06;;;;;;;6.30;2.08;;;14.20;99.90;;;;;;5035964;28;20108;-80
2023/03/19 09:07:32;;;;;;;5.43;2.20;;;14.20;99.90;;;;;;5030473;28;20117;-77
2023/03/19 09:09:59;;;;;;;8.57;2.30;;;14.20;99.90;;;;;;5026697;28;20049;-81
2023/03/19 09:12:26;;;;;;;11.90;3.15;;;14.30;99.90;;;;;;5037808;28;20046;-79
2023/03/19 09:14:53;;;;;;;4.93;2.22;;;14.30;99.90;;;;;;5031327;28;20081;-80
2023/03/19 09:17:19;;;;;;;10.00;2.10;;;14.30;99.90;;;;;;5038447;28;20045;-81
2023/03/19 09:19:46;;;;;;;5.40;2.13;;;14.30;99.90;;;;;;5038888;28;20060;-79
2023/03/19 09:22:13;;;;;;;5.80;1.40;;;14.30;99.90;;;;;;5035053;28;20458;-80
2023/03/19 09:24:39;;;;;;;6.63;1.50;;;14.30;99.90;;;;;;5037830;28;20056;-83
2023/03/19 09:27:06;;;;;;;5.90;1.63;;;14.30;99.90;;;;;;5031306;28;20050;-81
2023/03/19 09:29:33;;;;;;;7.00;2.05;;;14.40;99.90;;;;;;5038772;28;20123;-81
2023/03/19 09:32:00;;;;;;;5.40;2.05;;;14.40;99.90;;;;;;5037640;28;20053;-81
2023/03/19 09:34:27;;;;;;;7.50;1.60;;;14.50;99.90;;;;;;5040111;28;20042;-81
2023/03/19 09:36:53;;;;;;;7.80;2.47;;;14.50;99.90;;;;;;5034829;28;20046;-80
2023/03/19 09:39:20;;;;;;;7.13;2.10;;;14.50;99.90;;;;;;5041018;28;20041;-80
2023/03/19 09:41:58;;;;;;;4.45;1.70;;;14.60;99.90;;;;;;5031217;28;20080;-80
2023/03/19 09:44:45;;;;;;;4.93;1.80;;;14.70;99.90;;;;;;5035551;28;20050;-80
2023/03/19 09:47:22;;;;;;;5.05;1.55;;;14.80;99.90;;;;;;5032034;28;20061;-80
2023/03/19 09:49:50;;;;;;;6.18;2.10;;;14.80;99.90;;;;;;5035795;28;20132;-82
2023/03/19 09:52:47;;;;;;;5.53;1.50;;;14.90;99.90;;;;;;5033941;28;20050;-81
2023/03/19 09:55:22;;;;;;;7.55;1.80;;;14.90;99.90;;;;;;5035320;28;20496;-83
2023/03/19 09:57:54;;;;;;;5.75;1.92;;;14.90;99.90;;;;;;5043036;28;20045;-82
2023/03/19 10:00:35;;;;;;;5.50;1.70;;;15.00;99.90;;;;;;5034030;28;20053;-80
2023/03/19 10:03:34;;;;;;;3.72;1.75;;;15.00;99.90;;;;;;5034419;28;20049;-80
2023/03/19 10:06:23;;;;;;;4.20;1.92;;;15.10;99.90;;;;;;5006056;28;20053;-81
2023/03/19 10:09:02;;;;;;;7.13;2.03;;;15.10;99.90;;;;;;5034822;28;20049;-81
2023/03/19 10:11:57;;;;;;;3.55;1.67;;;15.10;99.90;;;;;;5026924;28;20045;-81
2023/03/19 10:14:42;;;;;;;6.28;1.80;;;15.10;99.90;;;;;;5026887;28;20068;-81
2023/03/19 10:17:18;;;;;;;4.43;1.60;;;15.00;99.90;;;;;;5033464;28;20051;-79
2023/03/19 10:20:03;;;;;;;3.08;1.88;;;15.00;99.90;;;;;;5035560;28;20050;-81
2023/03/19 10:22:46;;;;;;;3.97;1.90;;;14.90;99.90;;;;;;5030425;28;20136;-81
2023/03/19 10:25:20;;;;;;;5.40;1.80;;;14.90;99.90;;;;;;5029860;28;20054;-79
2023/03/19 10:27:53;;;;;;;6.43;2.17;;;14.90;99.90;;;;;;5032389;28;20053;-81
2023/03/19 10:30:20;;;;;;;8.85;2.20;;;14.90;99.90;;;;;;5033159;28;20537;-81
2023/03/19 10:33:10;;;;;;;6.35;1.90;;;14.90;99.90;;;;;;5037608;28;20045;-79
2023/03/19 10:35:42;;;;;;;6.75;2.15;;;14.90;99.90;;;;;;5041940;28;20052;-81
2023/03/19 10:38:20;;;;;;;4.38;2.05;;;15.00;99.90;;;;;;5032501;28;20130;-81
2023/03/19 10:41:14;;;;;;;7.53;2.22;;;15.10;99.90;;;;;;5027568;28;20125;-82
2023/03/19 10:43:42;;;;;;;9.15;2.30;;;15.10;99.90;;;;;;5033563;28;20058;-82
2023/03/19 10:46:14;;;;;;;9.55;2.28;;;15.20;99.90;;;;;;5038206;28;20116;-81
2023/03/19 10:48:45;;;;;;;5.10;1.80;;;15.30;99.90;;;;;;5037241;28;20050;-81
2023/03/19 10:51:19;;;;;;;7.00;2.08;;;15.30;99.90;;;;;;5036420;28;20045;-79
2023/03/19 10:53:46;;;;;;;7.45;1.90;;;15.40;99.90;;;;;;5040162;28;20050;-81
2023/03/19 10:56:29;;;;;;;6.13;2.08;;;15.50;99.90;;;;;;5033571;28;20042;-80
2023/03/19 10:59:02;;;;;;;6.70;2.63;;;15.60;99.90;;;;;;5033699;28;20505;-81
2023/03/19 11:01:42;;;;;;;5.63;1.77;;;15.70;99.90;;;;;;5035461;28;20042;-80
2023/03/19 11:04:19;;;;;;;6.27;1.50;;;15.80;99.90;;;;;;5031282;28;20037;-79
2023/03/19 11:06:54;;;;;;;8.20;2.08;;;15.80;99.90;;;;;;5032041;28;20046;-81
2023/03/19 11:09:32;;;;;;;7.07;2.40;;;16.00;99.90;;;;;;5034684;28;20046;-80
2023/03/19 11:12:26;;;;;;;4.43;1.52;;;16.00;99.90;;;;;;5032452;28;20050;-77
2023/03/19 11:14:56;;;;;;;6.55;1.98;;;16.10;99.90;;;;;;5033324;28;20117;-77
2023/03/19 11:17:36;;;;;;;4.35;2.20;;;16.10;99.90;;;;;;5031440;28;20119;-80
2023/03/19 11:20:32;;;;;;;8.10;2.40;;;16.20;99.90;;;;;;5031945;28;20057;-80
2023/03/19 11:23:02;;;;;;;4.32;1.90;;;16.20;99.90;;;;;;5029354;28;20042;-80
2023/03/19 11:25:45;;;;;;;6.07;1.70;;;16.30;99.90;;;;;;5036824;28;20050;-78
2023/03/19 11:28:17;;;;;;;8.82;2.63;;;16.30;99.90;;;;;;5033170;28;20117;-77
2023/03/19 11:30:51;;;;;;;4.47;2.03;;;16.40;99.90;;;;;;5037719;28;20164;-80
2023/03/19 11:33:32;;;;;;;5.45;1.70;;;16.50;99.90;;;;;;5039605;28;20516;-80
2023/03/19 11:36:02;;;;;;;5.72;1.70;;;16.50;99.90;;;;;;5044929;28;20050;-79
2023/03/19 11:38:42;;;;;;;6.80;2.28;;;16.50;99.90;;;;;;5040548;28;20502;-81
2023/03/19 11:41:37;;;;;;;5.87;2.13;;;16.50;99.90;;;;;;5040091;28;21093;-82
2023/03/19 11:44:33;;;;;;;8.00;1.88;;;16.60;99.90;;;;;;5041496;28;20045;-79
2023/03/19 11:47:29;;;;;;;3.55;1.77;;;16.60;99.90;;;;;;5038837;28;20048;-79
2023/03/19 11:50:26;;;;;;;5.10;1.88;;;16.70;99.90;;;;;;5037760;28;20046;-81
2023/03/19 11:53:00;;;;;;;5.78;2.03;;;16.60;99.90;;;;;;5040230;28;20081;-78
2023/03/19 11:55:34;;;;;;;5.57;1.77;;;16.60;99.90;;;;;;5026623;28;20045;-80
2023/03/19 11:58:28;;;;;;;5.20;1.80;;;16.50;99.90;;;;;;5041614;28;20053;-81
2023/03/19 12:00:56;;;;;;;8.18;2.10;;;16.40;99.90;;;;;;5038067;28;20042;-77
2023/03/19 12:03:39;;;;;;;5.63;1.80;;;16.30;99.90;;;;;;5041292;28;20125;-81
2023/03/19 12:06:23;;;;;;;4.72;1.60;;;16.30;99.90;;;;;;5034753;28;20045;-81
2023/03/19 12:08:58;;;;;;;4.93;1.70;;;16.30;99.90;;;;;;5049979;28;20049;-81
2023/03/19 12:11:51;;;;;;;4.18;2.03;;;16.30;99.90;;;;;;5030015;28;20125;-81
2023/03/19 12:14:29;;;;;;;4.32;1.75;;;16.30;99.90;;;;;;5036363;28;20046;-81
2023/03/19 12:17:45;;;;;;;5.88;1.73;;;16.30;99.90;;;;;;5039209;28;20056;-78
2023/03/19 12:20:12;;;;;;;4.40;1.85;;;16.40;99.90;;;;;;5019535;28;20079;-80
2023/03/19 12:23:03;;;;;;;5.03;1.95;;;16.40;99.90;;;;;;5017532;28;20050;-80
2023/03/19 12:25:59;;;;;;;7.30;1.88;;;16.40;99.90;;;;;;5038059;28;20121;-81
2023/03/19 12:28:29;;;;;;;7.05;2.53;;;16.40;99.90;;;;;;5031440;28;20057;-79
2023/03/19 12:31:19;;;;;;;6.47;2.10;;;16.40;99.90;;;;;;5045960;28;20137;-79
2023/03/19 12:34:08;;;;;;;5.80;2.10;;;16.40;99.90;;;;;;5040415;28;20424;-80
2023/03/19 12:36:53;;;;;;;7.05;1.85;;;16.30;99.90;;;;;;5034158;28;20118;-80
2023/03/19 12:39:26;;;;;;;4.55;1.73;;;16.20;99.90;;;;;;5032951;28;20137;-81
2023/03/19 12:41:55;;;;;;;5.00;1.85;;;16.10;99.90;;;;;;5034304;28;20073;-78
2023/03/19 12:44:29;;;;;;;4.28;1.90;;;16.00;99.90;;;;;;5033086;28;20137;-80
2023/03/19 12:47:37;;;;;;;6.47;1.70;;;16.00;99.90;;;;;;5034102;28;20058;-80
2023/03/19 12:50:14;;;;;;;5.05;1.60;;;15.90;99.90;;;;;;5048249;28;20049;-81
2023/03/19 12:52:43;;;;;;;3.47;1.70;;;15.80;99.90;;;;;;5038183;28;20141;-82
2023/03/19 12:55:22;;;;;;;3.72;2.00;;;15.70;99.90;;;;;;5032693;28;20065;-79
2023/03/19 12:58:01;;;;;;;3.55;1.73;;;15.70;99.90;;;;;;5032612;28;20053;-78
2023/03/19 13:00:34;;;;;;;5.35;1.65;;;15.70;99.90;;;;;;5031721;28;20084;-81
2023/03/19 13:03:33;;;;;;;2.85;1.60;;;15.70;99.90;;;;;;5040232;28;20100;-81
2023/03/19 13:06:25;;;;;;;5.03;1.65;;;15.70;99.90;;;;;;5040050;28;20076;-82